createdAt,value
2022-11-28T00:02:18.318Z,5.13
2022-11-28T00:04:44.956Z,4.60
2022-11-28T00:07:12.016Z,6.38
2022-11-28T00:09:38.857Z,4.88
2022-11-28T00:12:05.373Z,4.30
2022-11-28T00:14:31.877Z,5.55
2022-11-28T00:16:58.412Z,5.18
2022-11-28T00:19:24.909Z,5.43
2022-11-28T00:21:51.378Z,4.53
2022-11-28T00:24:17.913Z,4.88
2022-11-28T00:26:44.569Z,5.63
2022-11-28T00:29:11.614Z,5.65
2022-11-28T00:31:43.144Z,4.38
2022-11-28T00:34:10.939Z,5.18
2022-11-28T00:36:37.400Z,5.65
2022-11-28T00:39:04.405Z,5.57
2022-11-28T00:41:31.279Z,5.47
2022-11-28T00:43:57.833Z,5.32
2022-11-28T00:46:25.184Z,3.97
2022-11-28T00:48:51.775Z,4.90
2022-11-28T00:51:22.377Z,4.95
2022-11-28T00:53:49.956Z,6.72
2022-11-28T00:56:17.805Z,3.92
2022-11-28T00:58:44.440Z,4.28
2022-11-28T01:01:11.020Z,5.47
2022-11-28T01:03:38.167Z,5.03
2022-11-28T01:06:05.066Z,5.40
2022-11-28T01:08:31.534Z,4.13
2022-11-28T01:10:58.950Z,4.10
2022-11-28T01:13:25.489Z,4.82
2022-11-28T01:15:52.259Z,5.22
2022-11-28T01:18:19.061Z,4.18
2022-11-28T01:20:45.504Z,4.63
2022-11-28T01:23:12.025Z,5.55
2022-11-28T01:25:38.783Z,6.05
2022-11-28T01:28:05.263Z,5.18
2022-11-28T01:30:31.826Z,3.85
2022-11-28T01:32:58.267Z,4.72
2022-11-28T01:35:24.701Z,4.68
2022-11-28T01:37:51.270Z,5.28
2022-11-28T01:40:17.734Z,5.55
2022-11-28T01:42:44.205Z,3.47
2022-11-28T01:45:16.043Z,3.90
2022-11-28T01:47:42.902Z,4.88
2022-11-28T01:50:09.584Z,3.40
2022-11-28T01:52:38.243Z,3.80
2022-11-28T01:55:05.609Z,3.85
2022-11-28T01:57:32.167Z,4.38
2022-11-28T02:00:09.134Z,3.42
2022-11-28T02:02:44.926Z,3.03
2022-11-28T02:05:11.703Z,3.70
2022-11-28T02:07:38.602Z,2.65
2022-11-28T02:10:07.169Z,3.72
2022-11-28T02:12:52.541Z,4.40
2022-11-28T02:15:45.843Z,3.28
2022-11-28T02:18:25.048Z,3.47
2022-11-28T02:20:54.385Z,3.30
2022-11-28T02:23:25.927Z,3.17
2022-11-28T02:26:11.208Z,4.18
2022-11-28T02:28:43.855Z,4.18
2022-11-28T02:31:13.419Z,4.15
2022-11-28T02:33:45.033Z,3.95
2022-11-28T02:36:27.021Z,3.97
2022-11-28T02:39:20.269Z,4.28
2022-11-28T02:41:50.560Z,3.28
2022-11-28T02:44:19.083Z,3.42
2022-11-28T02:46:50.121Z,3.63
2022-11-28T02:49:21.154Z,2.92
2022-11-28T02:51:54.929Z,3.65
2022-11-28T02:56:49.473Z,4.30
2022-11-28T02:59:25.733Z,2.67
2022-11-28T03:01:52.763Z,4.00
2022-11-28T03:04:27.989Z,3.63
2022-11-28T03:07:02.087Z,4.72
2022-11-28T03:09:28.734Z,3.30
2022-11-28T03:12:01.700Z,3.30
2022-11-28T03:14:57.928Z,3.60
2022-11-28T03:17:24.575Z,3.28
2022-11-28T03:19:57.270Z,2.97
2022-11-28T03:22:44.045Z,3.10
2022-11-28T03:25:25.734Z,4.60
2022-11-28T03:27:55.757Z,4.22
2022-11-28T03:30:26.373Z,4.22
2022-11-28T03:32:54.090Z,3.42
2022-11-28T03:35:23.380Z,4.38
2022-11-28T03:37:52.870Z,4.13
2022-11-28T03:40:22.738Z,4.93
2022-11-28T03:42:53.420Z,3.60
2022-11-28T03:45:25.049Z,4.43
2022-11-28T03:47:55.858Z,4.10
2022-11-28T03:50:26.148Z,4.05
2022-11-28T03:52:57.077Z,4.97
2022-11-28T03:55:27.724Z,4.47
2022-11-28T03:57:59.992Z,3.85
2022-11-28T04:00:27.649Z,4.43
2022-11-28T04:03:05.907Z,3.88
2022-11-28T04:05:44.745Z,5.50
2022-11-28T04:08:14.449Z,4.32
2022-11-28T04:10:45.897Z,3.42
2022-11-28T04:13:36.976Z,3.83
2022-11-28T04:16:06.388Z,3.78
2022-11-28T04:18:36.032Z,3.90
2022-11-28T04:21:08.765Z,4.45
2022-11-28T04:23:36.252Z,3.80
2022-11-28T04:26:09.138Z,3.15
2022-11-28T04:28:36.836Z,3.70
2022-11-28T04:31:04.743Z,4.18
2022-11-28T04:33:33.478Z,3.00
2022-11-28T04:36:00.446Z,3.80
2022-11-28T04:38:28.263Z,3.83
2022-11-28T04:41:03.227Z,3.65
2022-11-28T04:43:32.704Z,4.13
2022-11-28T04:46:11.435Z,4.50
2022-11-28T04:48:38.238Z,3.78
2022-11-28T04:51:17.102Z,4.15
2022-11-28T04:53:49.887Z,3.50
2022-11-28T04:56:27.180Z,4.55
2022-11-28T04:58:53.967Z,3.92
2022-11-28T05:01:29.160Z,4.40
2022-11-28T05:03:56.103Z,5.03
2022-11-28T05:06:27.216Z,4.20
2022-11-28T05:08:53.847Z,5.30
2022-11-28T05:11:20.790Z,4.00
2022-11-28T05:13:47.456Z,4.32
2022-11-28T05:16:15.129Z,5.03
2022-11-28T05:18:41.761Z,4.32
2022-11-28T05:21:09.209Z,3.88
2022-11-28T05:23:40.006Z,4.35
2022-11-28T05:26:17.752Z,4.28
2022-11-28T05:28:45.271Z,3.83
2022-11-28T05:31:12.118Z,3.47
2022-11-28T05:33:39.268Z,4.03
2022-11-28T05:36:12.643Z,3.55
2022-11-28T05:38:40.107Z,3.88
2022-11-28T05:41:06.769Z,4.50
2022-11-28T05:43:33.323Z,3.72
2022-11-28T05:45:59.960Z,3.22
2022-11-28T05:48:26.658Z,3.05
2022-11-28T05:50:53.201Z,4.00
2022-11-28T05:53:20.246Z,4.50
2022-11-28T05:55:46.981Z,4.05
2022-11-28T05:58:13.575Z,4.60
2022-11-28T06:00:40.163Z,4.22
2022-11-28T06:03:06.806Z,4.05
2022-11-28T06:05:47.513Z,4.88
2022-11-28T06:08:14.211Z,4.35
2022-11-28T06:10:40.979Z,4.68
2022-11-28T06:13:07.651Z,3.10
2022-11-28T06:15:37.989Z,3.85
2022-11-28T06:18:05.473Z,4.10
2022-11-28T06:20:32.091Z,3.95
2022-11-28T06:22:58.721Z,4.22
2022-11-28T06:25:25.300Z,3.97
2022-11-28T06:27:52.046Z,4.03
2022-11-28T06:30:18.707Z,4.07
2022-11-28T06:32:45.369Z,3.72
2022-11-28T06:35:12.071Z,3.10
2022-11-28T06:37:38.686Z,4.55
2022-11-28T06:40:05.746Z,4.97
2022-11-28T06:42:32.569Z,5.10
2022-11-28T06:44:59.143Z,3.60
2022-11-28T06:47:25.734Z,4.05
2022-11-28T06:49:52.365Z,5.40
2022-11-28T06:52:19.128Z,3.22
2022-11-28T06:54:45.773Z,3.08
2022-11-28T06:57:12.819Z,3.28
2022-11-28T06:59:39.550Z,3.95
2022-11-28T07:02:07.937Z,4.03
2022-11-28T07:04:34.892Z,3.22
2022-11-28T07:07:01.688Z,3.95
2022-11-28T07:09:28.260Z,3.10
2022-11-28T07:11:54.858Z,3.63
2022-11-28T07:14:21.536Z,4.20
2022-11-28T07:16:49.418Z,3.90
2022-11-28T07:19:16.391Z,3.47
2022-11-28T07:21:42.974Z,4.03
2022-11-28T07:24:09.578Z,4.00
2022-11-28T07:26:38.232Z,3.40
2022-11-28T07:29:07.071Z,3.72
2022-11-28T07:31:34.039Z,3.67
2022-11-28T07:34:02.327Z,4.90
2022-11-28T07:36:29.231Z,4.40
2022-11-28T07:38:57.035Z,3.63
2022-11-28T07:41:26.839Z,4.57
2022-11-28T07:43:58.093Z,4.80
2022-11-28T07:46:25.162Z,3.78
2022-11-28T07:48:51.879Z,3.00
2022-11-28T07:51:28.905Z,4.00
2022-11-28T07:53:56.016Z,5.57
2022-11-28T07:56:23.603Z,4.18
2022-11-28T07:58:50.450Z,4.40
2022-11-28T08:01:18.760Z,4.63
2022-11-28T08:03:45.840Z,3.35
2022-11-28T08:06:12.997Z,3.92
2022-11-28T08:08:39.901Z,4.63
2022-11-28T08:11:08.745Z,4.40
2022-11-28T08:13:36.069Z,5.10
2022-11-28T08:16:07.187Z,5.07
2022-11-28T08:18:34.333Z,4.65
2022-11-28T08:21:23.888Z,4.50
2022-11-28T08:23:51.932Z,4.65
2022-11-28T08:26:19.374Z,3.53
2022-11-28T08:28:46.194Z,3.72
2022-11-28T08:31:17.294Z,5.13
2022-11-28T08:33:44.159Z,3.67
2022-11-28T08:36:11.522Z,4.30
2022-11-28T08:38:38.067Z,4.78
2022-11-28T08:41:05.772Z,4.70
2022-11-28T08:43:33.665Z,3.85
2022-11-28T08:46:01.200Z,2.85
2022-11-28T08:48:27.783Z,3.17
2022-11-28T08:50:55.001Z,3.60
2022-11-28T08:53:21.539Z,4.13
2022-11-28T08:55:48.049Z,4.15
2022-11-28T08:58:14.796Z,3.25
2022-11-28T09:00:43.002Z,4.57
2022-11-28T09:03:17.049Z,4.07
2022-11-28T09:05:46.151Z,4.00
2022-11-28T09:08:13.200Z,3.95
2022-11-28T09:10:40.133Z,3.63
2022-11-28T09:13:06.735Z,4.05
2022-11-28T09:15:33.229Z,3.38
2022-11-28T09:17:59.695Z,2.97
2022-11-28T09:20:26.565Z,3.20
2022-11-28T09:22:53.021Z,3.58
2022-11-28T09:25:19.494Z,3.45
2022-11-28T09:27:46.022Z,3.35
2022-11-28T09:30:12.686Z,4.35
2022-11-28T09:32:39.142Z,4.28
2022-11-28T09:35:05.913Z,4.13
2022-11-28T09:37:32.403Z,3.05
2022-11-28T09:40:12.679Z,3.15
2022-11-28T09:42:44.949Z,3.90
2022-11-28T09:45:14.611Z,2.92
2022-11-28T09:47:42.914Z,3.33
2022-11-28T09:50:16.595Z,3.72
2022-11-28T09:52:46.619Z,4.13
2022-11-28T09:55:18.553Z,4.07
2022-11-28T09:57:49.764Z,3.67
2022-11-28T10:00:21.817Z,2.65
2022-11-28T10:03:07.305Z,2.95
2022-11-28T10:05:39.897Z,2.88
2022-11-28T10:08:21.898Z,3.83
2022-11-28T10:11:07.102Z,3.30
2022-11-28T10:13:59.891Z,3.03
2022-11-28T10:16:32.961Z,2.78
2022-11-28T10:19:05.725Z,3.20
2022-11-28T10:21:43.045Z,3.72
2022-11-28T10:24:14.688Z,3.15
2022-11-28T10:26:43.812Z,2.92
2022-11-28T10:29:16.298Z,3.67
2022-11-28T10:31:44.076Z,2.47
2022-11-28T10:34:23.677Z,2.55
2022-11-28T10:36:50.098Z,3.10
2022-11-28T10:39:16.593Z,2.67
2022-11-28T10:42:11.788Z,3.00
2022-11-28T10:44:44.894Z,2.30
2022-11-28T10:47:28.568Z,2.05
2022-11-28T10:49:55.101Z,2.42
2022-11-28T10:52:25.055Z,2.95
2022-11-28T10:55:14.866Z,2.20
2022-11-28T10:57:53.728Z,2.50
2022-11-28T11:00:20.521Z,3.17
2022-11-28T11:02:46.976Z,3.50
2022-11-28T11:05:15.370Z,3.38
2022-11-28T11:07:48.306Z,2.47
2022-11-28T11:10:20.391Z,3.57
2022-11-28T11:12:47.567Z,3.17
2022-11-28T11:15:20.264Z,2.60
2022-11-28T11:17:46.763Z,2.47
2022-11-28T11:20:28.301Z,3.92
2022-11-28T11:22:58.766Z,2.50
2022-11-28T11:25:26.116Z,2.35
2022-11-28T11:27:54.688Z,2.30
2022-11-28T11:30:27.232Z,2.40
2022-11-28T11:32:54.538Z,5.28
2022-11-28T11:35:23.382Z,2.50
2022-11-28T11:37:50.092Z,4.25
2022-11-28T11:40:27.003Z,3.80
2022-11-28T11:42:57.705Z,3.40
2022-11-28T11:45:32.405Z,3.72
2022-11-28T11:47:59.092Z,5.03
2022-11-28T11:50:27.388Z,3.38
2022-11-28T11:53:09.184Z,3.72
2022-11-28T11:55:48.204Z,4.20
2022-11-28T11:58:17.522Z,3.20
2022-11-28T12:00:43.975Z,3.42
2022-11-28T12:03:10.630Z,4.00
2022-11-28T12:06:12.860Z,3.17
2022-11-28T12:08:43.157Z,3.80
2022-11-28T12:11:14.817Z,3.03
2022-11-28T12:13:41.375Z,2.70
2022-11-28T12:16:26.827Z,2.72
2022-11-28T12:18:56.079Z,2.85
2022-11-28T12:21:34.425Z,2.40
2022-11-28T12:24:07.088Z,2.92
2022-11-28T12:26:48.917Z,2.10
2022-11-28T12:29:34.053Z,3.47
2022-11-28T12:32:06.591Z,3.42
2022-11-28T12:34:45.928Z,3.40
2022-11-28T12:38:09.786Z,4.63
2022-11-28T12:40:48.631Z,4.40
2022-11-28T12:43:15.370Z,3.30
2022-11-28T12:45:48.422Z,3.17
2022-11-28T12:48:20.924Z,2.97
2022-11-28T12:50:50.247Z,3.42
2022-11-28T12:53:23.065Z,3.38
2022-11-28T12:56:14.553Z,2.95
2022-11-28T12:58:43.534Z,2.95
2022-11-28T13:01:22.394Z,2.78
2022-11-28T13:03:48.878Z,2.97
2022-11-28T13:06:15.330Z,3.17
2022-11-28T13:08:47.894Z,3.15
2022-11-28T13:11:21.210Z,4.82
2022-11-28T13:13:56.409Z,3.10
2022-11-28T13:16:28.472Z,4.55
2022-11-28T13:18:55.007Z,4.60
2022-11-28T13:21:33.717Z,3.78
2022-11-28T13:24:06.656Z,3.88
2022-11-28T13:26:49.206Z,3.42
2022-11-28T13:29:23.222Z,2.83
2022-11-28T13:32:12.805Z,3.13
2022-11-28T13:34:39.462Z,2.65
2022-11-28T13:40:01.002Z,2.53
2022-11-28T13:43:04.447Z,3.30
2022-11-28T13:45:34.180Z,3.97
2022-11-28T13:48:21.246Z,6.13
2022-11-28T13:50:59.519Z,4.93
2022-11-28T13:53:26.105Z,5.95
2022-11-28T13:56:07.919Z,4.93
2022-11-28T13:58:40.469Z,6.13
2022-11-28T14:01:07.592Z,3.47
2022-11-28T14:03:36.619Z,2.83
2022-11-28T14:06:05.807Z,6.07
2022-11-28T14:08:39.365Z,6.20
2022-11-28T14:11:27.289Z,5.28
2022-11-28T14:14:04.265Z,5.20
2022-11-28T14:16:33.954Z,6.25
2022-11-28T14:19:14.758Z,8.93
2022-11-28T14:21:41.233Z,9.85
2022-11-28T14:24:15.992Z,6.68
2022-11-28T14:26:45.392Z,4.53
2022-11-28T14:29:24.124Z,4.07
2022-11-28T14:32:14.158Z,3.13
2022-11-28T14:34:45.440Z,3.05
2022-11-28T14:37:27.395Z,4.35
2022-11-28T14:39:57.254Z,4.40
2022-11-28T14:45:32.245Z,5.43
2022-11-28T14:48:28.764Z,4.10
2022-11-28T14:51:01.404Z,3.58
2022-11-28T14:53:42.655Z,4.40
2022-11-28T14:56:10.062Z,3.03
2022-11-28T14:58:36.508Z,3.50
2022-11-28T15:01:05.553Z,4.72
2022-11-28T15:04:04.600Z,6.93
2022-11-28T15:06:34.213Z,4.65
2022-11-28T15:09:13.825Z,5.45
2022-11-28T15:11:46.462Z,5.75
2022-11-28T15:14:23.072Z,4.38
2022-11-28T15:16:51.329Z,5.80
2022-11-28T15:19:21.195Z,4.38
2022-11-28T15:21:49.566Z,5.22
2022-11-28T15:24:17.598Z,4.88
2022-11-28T15:26:44.986Z,4.95
2022-11-28T15:29:18.594Z,5.22
2022-11-28T15:31:48.613Z,4.60
2022-11-28T15:34:44.667Z,4.88
2022-11-28T15:37:18.552Z,6.45
2022-11-28T15:39:46.253Z,5.80
2022-11-28T15:42:39.021Z,5.68
2022-11-28T15:45:08.310Z,7.22
2022-11-28T15:47:34.935Z,12.45
2022-11-28T15:50:25.277Z,9.75
2022-11-28T15:52:59.021Z,12.10
2022-11-28T15:55:27.207Z,16.35
2022-11-28T15:58:09.289Z,28.88
2022-11-28T16:00:35.896Z,11.70
2022-11-28T16:03:02.564Z,8.48
2022-11-28T16:05:29.093Z,6.75
2022-11-28T16:07:55.610Z,5.15
2022-11-28T16:10:33.905Z,4.95
2022-11-28T16:13:10.533Z,4.70
2022-11-28T16:15:38.121Z,4.45
2022-11-28T16:18:04.726Z,3.78
2022-11-28T16:20:35.729Z,4.30
2022-11-28T16:23:08.250Z,5.15
2022-11-28T16:25:34.909Z,4.55
2022-11-28T16:28:01.466Z,7.43
2022-11-28T16:30:36.693Z,5.63
2022-11-28T16:33:23.285Z,6.57
2022-11-28T16:35:49.768Z,8.65
2022-11-28T16:38:19.057Z,5.93
2022-11-28T16:40:45.766Z,7.55
2022-11-28T16:43:23.869Z,17.58
2022-11-28T16:46:06.525Z,28.73
2022-11-28T16:48:37.882Z,33.92
2022-11-28T16:51:13.375Z,31.27
2022-11-28T16:53:51.089Z,23.20
2022-11-28T16:56:26.838Z,17.27
2022-11-28T16:59:13.290Z,14.07
2022-11-28T17:01:40.979Z,11.85
2022-11-28T17:04:18.345Z,6.85
2022-11-28T17:06:44.834Z,5.18
2022-11-28T17:09:12.390Z,4.15
2022-11-28T17:11:41.338Z,3.63
2022-11-28T17:14:13.221Z,3.63
2022-11-28T17:16:40.773Z,4.63
2022-11-28T17:19:07.296Z,4.30
2022-11-28T17:21:42.078Z,4.05
2022-11-28T17:24:14.853Z,2.95
2022-11-28T17:26:41.348Z,4.88
2022-11-28T17:29:10.253Z,3.67
2022-11-28T17:31:37.356Z,4.53
2022-11-28T17:34:03.845Z,3.35
2022-11-28T17:36:30.289Z,3.83
2022-11-28T17:39:00.945Z,3.17
2022-11-28T17:41:30.285Z,3.08
2022-11-28T17:43:56.736Z,3.38
2022-11-28T17:46:23.169Z,3.53
2022-11-28T17:48:49.703Z,3.20
2022-11-28T17:51:16.944Z,3.78
2022-11-28T17:53:43.477Z,4.85
2022-11-28T17:56:13.380Z,4.55
2022-11-28T17:58:39.846Z,4.32
2022-11-28T18:01:13.044Z,4.13
2022-11-28T18:03:40.328Z,6.30
2022-11-28T18:06:07.180Z,4.38
2022-11-28T18:08:33.631Z,6.10
2022-11-28T18:11:07.994Z,5.93
2022-11-28T18:13:34.617Z,4.90
2022-11-28T18:16:01.147Z,5.28
2022-11-28T18:18:28.133Z,3.72
2022-11-28T18:20:54.639Z,5.05
2022-11-28T18:23:21.441Z,4.15
2022-11-28T18:25:47.986Z,5.82
2022-11-28T18:28:18.878Z,8.50
2022-11-28T18:30:46.368Z,6.70
2022-11-28T18:33:13.479Z,7.03
2022-11-28T18:35:40.318Z,6.22
2022-11-28T18:38:07.345Z,5.03
2022-11-28T18:40:34.585Z,5.85
2022-11-28T18:43:04.108Z,6.05
2022-11-28T18:45:30.712Z,5.00
2022-11-28T18:48:00.152Z,5.00
2022-11-28T18:50:27.069Z,5.63
2022-11-28T18:52:54.409Z,4.88
2022-11-28T18:55:20.954Z,4.47
2022-11-28T18:57:47.480Z,4.93
2022-11-28T19:00:14.245Z,5.22
2022-11-28T19:02:40.773Z,4.95
2022-11-28T19:05:07.474Z,4.65
2022-11-28T19:07:33.988Z,4.75
2022-11-28T19:10:00.496Z,4.28
2022-11-28T19:12:27.852Z,4.25
2022-11-28T19:15:00.293Z,4.65
2022-11-28T19:17:32.083Z,4.97
2022-11-28T19:19:58.571Z,4.88
2022-11-28T19:22:25.134Z,4.40
2022-11-28T19:24:51.829Z,3.90
2022-11-28T19:27:18.313Z,4.30
2022-11-28T19:29:45.150Z,4.47
2022-11-28T19:32:12.725Z,3.97
2022-11-28T19:34:39.193Z,4.10
2022-11-28T19:37:06.124Z,3.65
2022-11-28T19:39:32.733Z,4.53
2022-11-28T19:42:02.268Z,4.78
2022-11-28T19:44:29.797Z,4.25
2022-11-28T19:46:56.483Z,3.58
2022-11-28T19:49:23.873Z,4.28
2022-11-28T19:51:50.845Z,3.70
2022-11-28T19:54:19.666Z,3.92
2022-11-28T19:56:46.855Z,4.72
2022-11-28T19:59:13.453Z,5.30
2022-11-28T20:01:40.016Z,4.72
2022-11-28T20:04:06.685Z,4.13
2022-11-28T20:06:33.421Z,5.15
2022-11-28T20:09:02.229Z,4.80
2022-11-28T20:11:30.596Z,4.18
2022-11-28T20:13:57.829Z,4.15
2022-11-28T20:16:24.650Z,4.32
2022-11-28T20:18:51.246Z,4.22
2022-11-28T20:21:18.901Z,4.50
2022-11-28T20:23:46.436Z,3.85
2022-11-28T20:26:13.744Z,5.22
2022-11-28T20:28:41.500Z,4.60
2022-11-28T20:31:16.161Z,4.25
2022-11-28T20:33:42.652Z,3.88
2022-11-28T20:36:10.608Z,3.95
2022-11-28T20:38:37.160Z,4.95
2022-11-28T20:41:08.185Z,5.15
2022-11-28T20:43:35.993Z,4.82
2022-11-28T20:46:07.280Z,4.65
2022-11-28T20:48:33.820Z,5.30
2022-11-28T20:51:00.362Z,5.47
2022-11-28T20:53:27.206Z,5.82
2022-11-28T20:56:03.902Z,7.65
2022-11-28T20:58:31.002Z,8.07
2022-11-28T21:00:57.709Z,7.95
2022-11-28T21:03:24.304Z,7.60
2022-11-28T21:05:50.975Z,6.47
2022-11-28T21:08:17.429Z,5.78
2022-11-28T21:10:43.948Z,4.90
2022-11-28T21:13:10.484Z,4.88
2022-11-28T21:15:45.707Z,5.28
2022-11-28T21:18:15.899Z,5.28
2022-11-28T21:20:45.305Z,4.68
2022-11-28T21:23:12.425Z,4.47
2022-11-28T21:25:39.871Z,5.13
2022-11-28T21:28:06.470Z,4.88
2022-11-28T21:30:33.514Z,4.78
2022-11-28T21:33:00.160Z,4.70
2022-11-28T21:35:26.605Z,4.15
2022-11-28T21:37:53.101Z,5.15
2022-11-28T21:40:19.585Z,4.70
2022-11-28T21:42:46.062Z,3.45
2022-11-28T21:45:12.548Z,4.15
2022-11-28T21:47:39.096Z,3.85
2022-11-28T21:50:05.876Z,4.70
2022-11-28T21:52:32.312Z,4.63
2022-11-28T21:54:58.818Z,5.25
2022-11-28T21:57:25.256Z,5.35
2022-11-28T21:59:51.773Z,5.10
2022-11-28T22:02:18.312Z,5.18
2022-11-28T22:04:45.208Z,5.80
2022-11-28T22:07:11.799Z,4.60
2022-11-28T22:09:38.221Z,3.92
2022-11-28T22:12:04.792Z,4.43
2022-11-28T22:14:44.527Z,3.58
2022-11-28T22:17:11.089Z,3.80
2022-11-28T22:19:37.527Z,4.43
2022-11-28T22:22:03.992Z,4.25
2022-11-28T22:24:30.479Z,5.53
2022-11-28T22:26:57.136Z,3.38
2022-11-28T22:29:23.758Z,3.72
2022-11-28T22:31:50.270Z,2.97
2022-11-28T22:34:16.759Z,4.10
2022-11-28T22:36:43.337Z,3.58
2022-11-28T22:39:10.468Z,3.10
2022-11-28T22:41:36.921Z,3.20
2022-11-28T22:44:04.300Z,3.65
2022-11-28T22:46:31.556Z,3.63
2022-11-28T22:49:01.369Z,4.10
2022-11-28T22:51:28.439Z,6.90
2022-11-28T22:53:55.711Z,11.07
2022-11-28T22:56:22.694Z,9.93
2022-11-28T22:58:49.244Z,6.03
2022-11-28T23:01:17.489Z,4.45
2022-11-28T23:03:44.706Z,3.85
2022-11-28T23:06:13.063Z,3.83
2022-11-28T23:08:39.548Z,3.65
2022-11-28T23:11:07.289Z,3.85
2022-11-28T23:13:37.584Z,4.82
2022-11-28T23:16:10.441Z,4.05
2022-11-28T23:18:37.016Z,3.67
2022-11-28T23:21:03.542Z,4.32
2022-11-28T23:23:33.510Z,5.28
2022-11-28T23:26:07.758Z,5.20
2022-11-28T23:28:34.784Z,5.13
2022-11-28T23:31:05.724Z,4.07
2022-11-28T23:33:32.623Z,4.13
2022-11-28T23:35:59.335Z,3.40
2022-11-28T23:38:25.886Z,3.28
2022-11-28T23:40:56.626Z,3.00
2022-11-28T23:43:23.091Z,3.65
2022-11-28T23:45:49.666Z,3.33
2022-11-28T23:48:16.403Z,4.63
2022-11-28T23:50:43.041Z,3.78
2022-11-28T23:53:09.482Z,3.47
2022-11-28T23:55:36.204Z,3.22
2022-11-28T23:58:02.642Z,3.00
